• Join FlightAware (Why Join?)
  • Login
  • US Flag 
12:00PM EST


 

Airport Tracker/Info


-or-


 

Live Flight TrackerFlight Track Log ✈ LOF3385 ✈ 02-May-2013 ✈ KORD - KROA

Flight Track Log - Related Links

Times and Time Zones

All times are in EDT time to prevent confusion due to time zone crossing. See the LOF3385 flight status page for this flight to view local times or setup timezone preferences in your user account.

Time Position Orientation Groundspeed Altitude Reporting Facility
EDT Latitude Longitude Course Direction KTS MPH feet Rate Location/Type
09:25AM 41.9833 -87.8667 143° Southeast 165 190 2,500  Level Chicago TRACON
09:26AM 41.9333 -87.8167 143° Southeast 233 268 4,200 2,280 Climbing Chicago TRACON
09:28AM 41.7917 -87.7900 172° South 256 295 9,600 2,460 Climbing Chicago Center
09:29AM 41.7192 -87.7875 179° South 259 298 11,900 1,980 Climbing Chicago Center
09:30AM 41.6519 -87.7406 152° Southeast 270 311 13,800 1,740 Climbing Chicago Center
09:31AM 41.5831 -87.6900 151° Southeast 279 321 15,500 1,500 Climbing Chicago Center
09:32AM 41.5103 -87.6353 151° Southeast 292 336 17,000 1,200 Climbing Chicago Center
09:33AM 41.4339 -87.5794 151° Southeast 309 356 18,100 1,380 Climbing Chicago Center
09:34AM 41.3281 -87.5558 170° South 321 369 19,900 1,560 Climbing Chicago Center
09:35AM 41.2375 -87.5400 173° South 326 375 21,300 1,320 Climbing Chicago Center
09:36AM 41.1456 -87.5189 170° South 333 383 22,700 1,320 Climbing Chicago Center
09:37AM 41.0553 -87.4933 168° South 332 382 24,100 1,080 Climbing Chicago Center
09:38AM 40.9622 -87.4686 169° South 340 391 25,000 420 Climbing Chicago Center
09:39AM 40.8678 -87.4136 156° South 369 425 25,000  Level Chicago Center
09:40AM 40.7478 -87.3356 154° Southeast 399 459 25,000  Level Chicago Center
09:41AM 40.6453 -87.2681 153° Southeast 410 472 25,000  Level Chicago Center
09:42AM 40.5389 -87.2019 155° Southeast 420 483 25,000  Level Chicago Center
09:44AM 40.4400 -87.1383 154° Southeast 428 493 25,000  Level Chicago Center
09:45AM 40.3122 -87.0567 154° Southeast 428 493 25,000  Level Chicago Center
09:46AM 40.2047 -86.9889 154° Southeast 430 495 25,000  Level Chicago Center
09:47AM 40.1219 -86.8769 134° Southeast 435 501 25,000  Level Chicago Center
09:48AM 40.0511 -86.7500 126° Southeast 430 495 25,000  Level Indianapolis Center
09:49AM 39.9817 -86.6239 126° Southeast 429 494 25,000  Level Indianapolis Center
09:50AM 39.9133 -86.5000 126° Southeast 422 486 25,000  Level Indianapolis Center
09:51AM 39.8450 -86.3786 126° Southeast 417 480 25,000  Level Indianapolis Center
09:52AM 39.7636 -86.2339 126° Southeast 419 482 25,000  Level Indianapolis Center
09:53AM 39.7033 -86.1256 126° Southeast 417 480 25,000  Level Indianapolis Center
09:54AM 39.6222 -85.9828 126° Southeast 411 473 25,000  Level Indianapolis Center
09:55AM 39.5536 -85.8633 127° Southeast 413 475 25,000  Level Indianapolis Center
09:56AM 39.4858 -85.7439 126° Southeast 412 474 25,000  Level Indianapolis Center
09:57AM 39.4361 -85.6125 116° Southeast 411 473 25,000  Level Indianapolis Center
09:58AM 39.3975 -85.4719 110° East 417 480 25,000  Level Indianapolis Center
09:59AM 39.3606 -85.3300 109° East 418 481 25,000  Level Indianapolis Center
10:00AM 39.3164 -85.1622 109° East 413 475 25,000  Level Indianapolis Center
10:01AM 39.2786 -85.0211 109° East 416 479 25,000  Level Indianapolis Center
10:02AM 39.2392 -84.8753 109° East 417 480 25,000  Level Indianapolis Center
10:03AM 39.2003 -84.7344 110° East 415 478 25,000  Level Indianapolis Center
10:04AM 39.1617 -84.5931 109° East 416 479 25,000  Level Indianapolis Center
10:05AM 39.1236 -84.4525 109° East 414 476 25,000  Level Indianapolis Center
10:06AM 39.0858 -84.3117 109° East 414 476 25,000  Level Indianapolis Center
10:07AM 39.0397 -84.1481 110° East 414 476 25,000  Level Indianapolis Center
10:08AM 39.0006 -84.0078 110° East 415 478 25,000  Level Indianapolis Center
10:09AM 38.9619 -83.8667 109° East 416 479 25,000  Level Indianapolis Center
10:10AM 38.9219 -83.7261 110° East 418 481 25,000  Level Indianapolis Center
10:11AM 38.8819 -83.5861 110° East 416 479 25,000  Level Indianapolis Center
10:12AM 38.8425 -83.4461 110° East 415 478 25,000  Level Indianapolis Center
10:13AM 38.7967 -83.2817 110° East 418 481 25,000  Level Indianapolis Center
10:14AM 38.7556 -83.1397 110° East 416 479 25,000  Level Indianapolis Center
10:16AM 38.7153 -83.0022 111° Southeast 413 475 25,000  Level Indianapolis Center
10:17AM 38.6756 -82.8633 110° East 416 479 25,000  Level Indianapolis Center
10:18AM 38.6339 -82.7239 111° Southeast 412 474 25,000  Level Indianapolis Center
10:19AM 38.5939 -82.5844 110° East 415 478 25,000  Level Indianapolis Center
10:20AM 38.5533 -82.4492 111° Southeast 416 479 25,000  Level Indianapolis Center
10:21AM 38.5039 -82.2850 111° Southeast 416 479 25,000  Level Indianapolis Center
10:22AM 38.4636 -82.1483 111° Southeast 414 476 25,000  Level Indianapolis Center
10:23AM 38.4231 -82.0111 111° Southeast 415 478 25,000  Level Indianapolis Center
10:24AM 38.3814 -81.8744 111° Southeast 415 478 25,000  Level Indianapolis Center
10:25AM 38.3344 -81.7442 115° Southeast 410 472 25,000 -540 Level Indianapolis Center
10:26AM 38.2531 -81.6042 126° Southeast 412 474 24,000 -540 Descending Indianapolis Center
10:27AM 38.1858 -81.4886 126° Southeast 409 471 24,000 -60 Level Indianapolis Center
10:28AM 38.1183 -81.3717 126° Southeast 411 473 23,900 -1,020 Descending Indianapolis Center
10:29AM 38.0475 -81.2525 127° Southeast 421 484 21,900 -2,040 Descending Indianapolis Center
10:30AM 37.9772 -81.1317 126° Southeast 426 490 19,700 -2,160 Descending Indianapolis Center
10:31AM 37.9119 -81.0183 126° Southeast 406 467 17,500 -2,160 Descending Indianapolis Center
10:32AM 37.8717 -80.9558 129° Southeast 408 470 16,500 -2,100 Descending Washington Center
10:32AM 37.8075 -80.8514 128° Southeast 393 452 14,500 -2,040 Descending Washington Center
10:34AM 37.7181 -80.6944 126° Southeast 364 419 11,300 -1,740 Descending Indianapolis Center
10:34AM 37.6928 -80.6572 131° Southeast 368 423 11,000 -240 Descending Washington Center
10:35AM 37.6344 -80.5589 127° Southeast 356 410 11,000  Level Washington Center
10:37AM 37.5761 -80.4581 126° Southeast 356 410 11,000 -720 Level Washington Center
10:38AM 37.5008 -80.4086 152° Southeast 305 351 9,600 -1,980 Descending Washington Center
10:38AM 37.4353 -80.3808 161° South 279 321 7,200 -1,860 Descending Washington Center
10:39AM 37.3672 -80.3558 164° South 263 303 6,000 -780 Descending Washington Center
10:40AM 37.3075 -80.3364 165° South 258 297 5,700 -420 Descending Washington Center
10:42AM 37.2439 -80.3142 164° South 252 290 5,200 -300 Descending Washington Center
10:42AM 37.2253 -80.2556 112° Southeast 198 228 5,200 -180 Level Washington Center
10:43AM 37.2383 -80.1886 76° East 164 189 4,900 -900 Descending Washington Center
10:44AM 37.2681 -80.1200 61° Northeast 178 205 3,500 -1,200 Descending Washington Center
10:45AM 37.2886 -80.0689 63° Northeast 179 206 2,600 -960 Descending Washington Center